Time;durP1;ratioP1;P1;durP2;ratioP2;P2;SDS_P1;SDS_P2;PMS_P1;PMS_P2;Temp;Humidity;BMP_temperature;BMP_pressure;BME280_temperature;BME280_humidity;BME280_pressure;Samples;Min_cycle;Max_cycle;Signal;HPM_P1;HPM_P2
2023/04/25 00:02:09;;;;;;;10.90;3.85;;;;;;;9.67;99.14;98152.81;5063553;28;20045;-93
2023/04/25 00:04:37;;;;;;;11.90;2.90;;;;;;;9.48;100.00;98128.69;5069382;28;20044;-94
2023/04/25 00:07:03;;;;;;;12.07;3.20;;;;;;;9.50;100.00;98126.88;5065327;28;20033;-93
2023/04/25 00:09:29;;;;;;;10.13;3.03;;;;;;;9.41;100.00;98112.13;5066043;28;20048;-92
2023/04/25 00:11:55;;;;;;;9.75;3.05;;;;;;;9.58;100.00;98139.88;5065316;28;20047;-93
2023/04/25 00:14:22;;;;;;;8.95;2.58;;;;;;;9.39;100.00;98116.59;5063477;28;20127;-93
2023/04/25 00:16:48;;;;;;;9.90;2.90;;;;;;;9.35;100.00;98117.63;5063969;28;20591;-91
2023/04/25 00:19:14;;;;;;;8.45;2.90;;;;;;;9.34;100.00;98120.31;5065566;28;20040;-93
2023/04/25 00:21:41;;;;;;;11.85;3.33;;;;;;;9.49;100.00;98145.50;5062317;28;20016;-93
2023/04/25 00:24:07;;;;;;;10.68;2.78;;;;;;;9.50;100.00;98149.88;5064996;28;20068;-93
2023/04/25 00:26:34;;;;;;;6.53;2.60;;;;;;;9.31;100.00;98115.13;5066349;28;20043;-93
2023/04/25 00:29:00;;;;;;;7.22;2.88;;;;;;;9.29;100.00;98112.50;5061418;28;20060;-93
2023/04/25 00:31:26;;;;;;;9.60;2.85;;;;;;;9.27;100.00;98114.34;5063742;28;20087;-92
2023/04/25 00:33:53;;;;;;;7.72;2.63;;;;;;;9.14;100.00;98090.00;5065822;28;20086;-93
2023/04/25 00:36:19;;;;;;;7.05;2.85;;;;;;;9.20;100.00;98097.75;5065609;28;20047;-93
2023/04/25 00:38:46;;;;;;;6.75;2.90;;;;;;;9.17;100.00;98084.59;5065217;28;20434;-92
2023/04/25 00:41:12;;;;;;;12.63;2.88;;;;;;;9.37;100.00;98123.75;5062194;28;20048;-91
2023/04/25 00:43:40;;;;;;;7.90;2.70;;;;;;;9.18;100.00;98085.47;5064965;28;20060;-93
2023/04/25 00:46:06;;;;;;;8.05;2.67;;;;;;;9.19;100.00;98090.69;5062541;28;20151;-92
2023/04/25 00:48:31;;;;;;;6.90;2.47;;;;;;;9.10;100.00;98080.41;5062779;28;20060;-93
2023/04/25 00:50:59;;;;;;;8.30;2.97;;;;;;;9.07;100.00;98077.00;5063983;28;20056;-93
2023/04/25 00:53:27;;;;;;;7.88;2.83;;;;;;;9.16;100.00;98108.53;5067878;28;20037;-95
2023/04/25 00:55:54;;;;;;;6.80;2.42;;;;;;;9.08;100.00;98092.84;5064672;28;20040;-93
2023/04/25 00:58:22;;;;;;;4.68;2.20;;;;;;;9.07;100.00;98109.69;5063946;28;20020;-93
2023/04/25 01:00:49;;;;;;;11.88;2.90;;;;;;;8.92;100.00;98096.91;5061256;28;20489;-93
2023/04/25 01:03:17;;;;;;;8.50;2.65;;;;;;;9.10;100.00;98119.31;5064022;28;20043;-93
2023/04/25 01:05:43;;;;;;;7.22;2.65;;;;;;;9.13;100.00;98128.06;5060514;28;20432;-92
2023/04/25 01:08:09;;;;;;;7.70;2.70;;;;;;;8.99;100.00;98103.75;5061401;28;20446;-93
2023/04/25 01:10:36;;;;;;;7.32;2.58;;;;;;;8.94;100.00;98098.59;5062341;28;20040;-93
2023/04/25 01:13:03;;;;;;;6.72;2.75;;;;;;;9.07;100.00;98122.94;5060531;28;20401;-95
2023/04/25 01:15:29;;;;;;;6.25;2.60;;;;;;;8.95;100.00;98092.34;5057659;28;20037;-94
2023/04/25 01:17:55;;;;;;;7.47;3.10;;;;;;;9.10;100.00;98117.53;5062247;28;20047;-93
2023/04/25 01:20:22;;;;;;;8.43;2.60;;;;;;;9.09;100.00;98105.19;5061271;28;20048;-93
2023/04/25 01:22:50;;;;;;;6.10;2.40;;;;;;;8.88;100.00;98074.91;5058228;28;20044;-93
2023/04/25 01:25:16;;;;;;;6.30;2.20;;;;;;;9.03;100.00;98103.59;5059748;28;20044;-94
2023/04/25 01:27:43;;;;;;;6.65;2.65;;;;;;;8.89;100.00;98068.72;5063421;28;20063;-93
2023/04/25 01:30:09;;;;;;;6.78;2.38;;;;;;;9.04;100.00;98089.44;5066652;28;20032;-93
2023/04/25 01:32:39;;;;;;;4.93;2.80;;;;;;;8.93;100.00;98066.81;5060388;28;20036;-93
2023/04/25 01:35:09;;;;;;;6.63;2.30;;;;;;;8.93;100.00;98072.97;5061635;28;20044;-93
2023/04/25 01:37:35;;;;;;;4.50;2.30;;;;;;;9.13;100.00;98106.84;5064181;28;20052;-93
2023/04/25 01:40:05;;;;;;;4.70;2.42;;;;;;;9.02;100.00;98087.72;5061163;28;20040;-94
2023/04/25 01:42:31;;;;;;;7.85;2.80;;;;;;;9.08;100.00;98100.78;5066538;28;20071;-94
2023/04/25 01:44:57;;;;;;;8.65;3.08;;;;;;;8.98;100.00;98083.47;5060302;28;20131;-94
2023/04/25 01:47:23;;;;;;;8.35;2.75;;;;;;;8.98;100.00;98084.31;5063703;28;20075;-92
2023/04/25 01:49:49;;;;;;;7.97;2.60;;;;;;;8.95;100.00;98087.06;5063895;28;20045;-93
2023/04/25 01:52:15;;;;;;;5.13;2.67;;;;;;;9.00;100.00;98095.75;5062220;28;20036;-94
2023/04/25 01:54:44;;;;;;;4.43;2.72;;;;;;;9.06;100.00;98094.66;5067149;28;20071;-92
2023/04/25 01:57:11;;;;;;;6.35;2.97;;;;;;;8.87;100.00;98065.25;5060438;28;20017;-92
2023/04/25 01:59:37;;;;;;;9.70;3.40;;;;;;;9.08;100.00;98094.63;5063542;28;20035;-93
2023/04/25 02:02:04;;;;;;;5.10;3.05;;;;;;;8.95;100.00;98073.78;5062942;28;20102;-93
2023/04/25 02:04:29;;;;;;;5.50;2.65;;;;;;;9.12;100.00;98104.22;5058838;28;20193;-93
2023/04/25 02:06:56;;;;;;;7.60;2.95;;;;;;;8.93;100.00;98080.94;5060483;28;20040;-92
2023/04/25 02:09:22;;;;;;;6.50;3.10;;;;;;;8.72;100.00;98057.72;5062143;28;20486;-92
2023/04/25 02:11:48;;;;;;;8.63;2.80;;;;;;;8.93;100.00;98093.31;5064478;28;20445;-92
2023/04/25 02:14:15;;;;;;;8.68;3.00;;;;;;;8.86;100.00;98091.78;5060811;28;20058;-92
2023/04/25 02:16:43;;;;;;;7.20;3.33;;;;;;;8.86;100.00;98102.41;5058749;28;20025;-94
2023/04/25 02:19:09;;;;;;;6.95;3.05;;;;;;;8.74;100.00;98088.59;5063313;28;20048;-93
2023/04/25 02:21:36;;;;;;;7.97;2.65;;;;;;;8.71;100.00;98101.06;5063868;28;20037;-89
2023/04/25 02:24:02;;;;;;;5.72;2.70;;;;;;;8.59;100.00;98081.13;5065984;28;20048;-93
2023/04/25 02:26:28;;;;;;;8.60;3.08;;;;;;;8.41;100.00;98061.31;5068687;28;20566;-95
2023/04/25 02:28:54;;;;;;;7.05;3.00;;;;;;;8.50;100.00;98071.66;5066542;28;20032;-94
2023/04/25 02:31:22;;;;;;;9.43;3.33;;;;;;;8.50;100.00;98068.13;5065229;28;20045;-93
2023/04/25 02:33:48;;;;;;;9.65;3.03;;;;;;;8.32;100.00;98043.88;5067830;28;20036;-94
2023/04/25 02:36:14;;;;;;;6.30;2.90;;;;;;;8.53;100.00;98068.91;5063497;28;20028;-92
2023/04/25 02:38:40;;;;;;;7.38;2.92;;;;;;;8.42;100.00;98060.44;5069019;28;20108;-93
2023/04/25 02:41:06;;;;;;;6.13;2.70;;;;;;;8.52;100.00;98080.44;5065159;28;20131;-92
2023/04/25 02:43:32;;;;;;;6.07;3.08;;;;;;;8.46;100.00;98074.44;5064964;28;20852;-93
2023/04/25 02:45:58;;;;;;;7.50;3.05;;;;;;;8.46;100.00;98070.03;5067418;28;20473;-93
2023/04/25 02:48:25;;;;;;;8.60;3.10;;;;;;;8.43;100.00;98067.44;5065731;28;20497;-94
2023/04/25 02:50:51;;;;;;;7.95;3.22;;;;;;;8.35;100.00;98056.16;5068251;28;20090;-92
2023/04/25 02:53:17;;;;;;;7.05;2.88;;;;;;;8.37;100.00;98076.44;5062614;28;20037;-93
2023/04/25 02:55:43;;;;;;;6.28;3.30;;;;;;;8.13;100.00;98045.34;5061170;28;20041;-93
2023/04/25 02:58:10;;;;;;;7.07;2.83;;;;;;;8.22;100.00;98047.75;5069968;28;20136;-93
2023/04/25 03:00:35;;;;;;;8.00;3.28;;;;;;;8.31;100.00;98052.75;5063659;28;20036;-93
2023/04/25 03:03:01;;;;;;;5.75;2.45;;;;;;;8.39;100.00;98058.72;5065328;28;20032;-92
2023/04/25 03:05:29;;;;;;;8.65;3.13;;;;;;;8.57;100.00;98075.00;5065670;28;20429;-92
2023/04/25 03:07:54;;;;;;;6.95;3.05;;;;;;;8.56;100.00;98046.75;5063443;28;20040;-92
2023/04/25 03:10:20;;;;;;;6.72;2.67;;;;;;;8.72;100.00;98041.81;5063826;28;20039;-92
2023/04/25 03:12:46;;;;;;;8.77;3.13;;;;;;;8.97;100.00;98077.25;5069888;28;20436;-93
2023/04/25 03:15:12;;;;;;;6.40;3.00;;;;;;;8.77;100.00;98038.13;5067406;28;20017;-93
2023/04/25 03:17:38;;;;;;;8.95;3.20;;;;;;;8.93;100.00;98074.75;5062244;28;20402;-94
2023/04/25 03:20:05;;;;;;;6.40;2.80;;;;;;;8.62;100.00;98041.25;5067636;28;20524;-92
2023/04/25 03:22:32;;;;;;;8.88;3.10;;;;;;;8.79;100.00;98076.06;5064526;28;20040;-92
2023/04/25 03:24:58;;;;;;;10.05;3.08;;;;;;;8.66;100.00;98055.31;5063139;28;20041;-94
2023/04/25 03:27:24;;;;;;;6.75;2.97;;;;;;;8.63;100.00;98067.72;5065452;28;20063;-94
2023/04/25 03:29:50;;;;;;;5.70;2.80;;;;;;;8.56;100.00;98068.81;5067141;28;20028;-93
2023/04/25 03:32:16;;;;;;;7.78;3.20;;;;;;;8.37;100.00;98044.63;5063936;28;20106;-93
2023/04/25 03:34:42;;;;;;;5.15;2.45;;;;;;;8.21;100.00;98030.09;5061550;28;20045;-94
2023/04/25 03:37:08;;;;;;;10.38;3.25;;;;;;;8.19;100.00;98056.63;5063275;28;20138;-93
2023/04/25 03:39:35;;;;;;;7.13;2.72;;;;;;;8.21;100.00;98068.03;5066563;28;20039;-93
2023/04/25 03:42:02;;;;;;;5.85;2.83;;;;;;;8.17;100.00;98074.31;5063521;28;20040;-93
2023/04/25 03:44:28;;;;;;;6.10;3.00;;;;;;;8.10;100.00;98074.56;5061990;28;20047;-93
2023/04/25 03:46:54;;;;;;;10.40;3.13;;;;;;;7.94;100.00;98058.25;5062559;28;20029;-92
2023/04/25 03:49:20;;;;;;;7.95;2.95;;;;;;;7.87;100.00;98062.84;5060787;28;20101;-93
2023/04/25 03:51:46;;;;;;;6.97;2.90;;;;;;;7.67;100.00;98036.03;5064597;28;20064;-93
2023/04/25 03:54:12;;;;;;;9.70;3.13;;;;;;;7.65;100.00;98040.50;5063701;28;20052;-93
2023/04/25 03:56:39;;;;;;;7.40;3.25;;;;;;;7.71;100.00;98050.94;5062699;28;20040;-92
2023/04/25 03:59:05;;;;;;;8.90;3.30;;;;;;;7.63;100.00;98039.69;5062694;28;20064;-92
2023/04/25 04:01:31;;;;;;;8.60;3.35;;;;;;;7.82;100.00;98076.19;5066602;28;20071;-94
2023/04/25 04:03:57;;;;;;;8.20;3.35;;;;;;;7.93;100.00;98078.53;5065644;28;20437;-92
2023/04/25 04:06:23;;;;;;;7.68;2.72;;;;;;;7.80;100.00;98048.88;5062847;28;20021;-92
2023/04/25 04:08:49;;;;;;;8.18;3.30;;;;;;;7.86;100.00;98063.75;5064084;28;20037;-92
2023/04/25 04:11:15;;;;;;;8.60;2.97;;;;;;;7.85;100.00;98059.38;5061936;28;20532;-94
2023/04/25 04:13:42;;;;;;;7.75;3.10;;;;;;;7.60;100.00;98020.31;5060688;28;20040;-93
2023/04/25 04:16:08;;;;;;;6.57;2.85;;;;;;;7.71;100.00;98040.34;5059630;28;20556;-94
2023/04/25 04:18:34;;;;;;;8.65;3.45;;;;;;;7.86;100.00;98070.81;5065398;28;20041;-93
2023/04/25 04:21:00;;;;;;;11.18;3.40;;;;;;;7.69;100.00;98043.03;5063754;28;20425;-94
2023/04/25 04:23:27;;;;;;;10.48;3.20;;;;;;;7.75;100.00;98052.59;5062900;28;20041;-92
2023/04/25 04:25:53;;;;;;;9.65;3.45;;;;;;;7.67;100.00;98033.41;5069354;28;20034;-95
2023/04/25 04:28:20;;;;;;;6.68;3.00;;;;;;;7.88;100.00;98056.63;5064331;28;20075;-94
2023/04/25 04:30:47;;;;;;;14.25;3.53;;;;;;;8.02;100.00;98072.13;5066879;28;20021;-94
2023/04/25 04:33:14;;;;;;;8.85;3.40;;;;;;;7.91;100.00;98051.25;5069590;28;20086;-95
2023/04/25 04:35:41;;;;;;;9.95;3.90;;;;;;;7.90;100.00;98046.00;5061959;28;20043;-93
2023/04/25 04:38:07;;;;;;;14.40;3.90;;;;;;;7.82;100.00;98025.88;5061291;28;20036;-94
2023/04/25 04:40:33;;;;;;;7.45;3.20;;;;;;;7.90;100.00;98030.97;5061704;28;20119;-93
2023/04/25 04:42:59;;;;;;;10.80;3.33;;;;;;;7.94;100.00;98029.13;5065334;28;20050;-95
2023/04/25 04:45:25;;;;;;;9.00;3.20;;;;;;;8.14;100.00;98055.03;5064422;28;20044;-95
2023/04/25 04:47:52;;;;;;;7.47;3.47;;;;;;;8.16;100.00;98056.72;5063774;28;20056;-93
2023/04/25 04:50:18;;;;;;;4.63;3.30;;;;;;;8.02;100.00;98009.47;5061228;28;20040;-94
2023/04/25 04:52:44;;;;;;;8.02;3.20;;;;;;;8.37;100.00;98044.63;5061988;28;20102;-93
2023/04/25 04:55:10;;;;;;;9.25;3.83;;;;;;;8.41;100.00;98046.31;5060909;28;20521;-93
2023/04/25 04:57:36;;;;;;;8.85;3.95;;;;;;;8.35;100.00;98022.63;5065823;28;20040;-94
2023/04/25 05:00:05;;;;;;;8.80;3.75;;;;;;;8.55;100.00;98060.94;5061909;28;20040;-95
2023/04/25 05:02:30;;;;;;;7.97;3.72;;;;;;;8.59;100.00;98058.13;5063596;28;20040;-93
2023/04/25 05:04:58;;;;;;;8.98;3.72;;;;;;;8.46;100.00;98014.38;5066606;28;20033;-94
2023/04/25 05:07:23;;;;;;;7.13;3.22;;;;;;;8.87;100.00;98062.59;5060214;28;20068;-94
2023/04/25 05:09:49;;;;;;;7.07;3.38;;;;;;;8.93;100.00;98045.59;5061828;28;20044;-94
2023/04/25 05:12:15;;;;;;;9.60;3.50;;;;;;;9.31;100.00;98070.88;5067147;28;20032;-93
2023/04/25 05:14:41;;;;;;;8.55;3.33;;;;;;;9.50;100.00;98056.97;5066012;28;20398;-94
2023/04/25 05:17:08;;;;;;;11.90;3.67;;;;;;;9.88;100.00;98069.78;5059766;28;20125;-93
2023/04/25 05:19:34;;;;;;;6.95;4.00;;;;;;;10.08;100.00;98063.78;5061692;28;20036;-95
2023/04/25 05:22:03;;;;;;;8.93;5.25;;;;;;;10.18;100.00;98058.97;5044126;28;20117;-93
2023/04/25 05:24:30;;;;;;;9.30;3.65;;;;;;;10.27;100.00;98049.78;5061934;28;20516;-93
2023/04/25 05:26:56;;;;;;;8.98;3.78;;;;;;;10.36;100.00;98035.34;5063061;28;20040;-95
2023/04/25 05:29:22;;;;;;;6.22;3.10;;;;;;;10.48;100.00;98048.16;5063706;28;20052;-93
2023/04/25 05:31:48;;;;;;;7.35;2.72;;;;;;;10.19;100.00;98055.41;5062426;28;20032;-93
2023/04/25 05:34:13;;;;;;;7.38;2.97;;;;;;;9.92;100.00;98019.22;5059908;28;20482;-92
2023/04/25 05:36:39;;;;;;;9.10;3.38;;;;;;;10.25;100.00;98025.06;5063789;28;20061;-93
2023/04/25 05:39:07;;;;;;;8.85;3.28;;;;;;;10.42;100.00;98025.31;5064351;28;20093;-94
2023/04/25 05:41:33;;;;;;;6.80;3.13;;;;;;;10.60;100.00;98014.91;5063875;28;20452;-93
2023/04/25 05:43:59;;;;;;;9.60;3.47;;;;;;;11.16;100.00;98038.34;5062181;28;20044;-94
2023/04/25 05:46:25;;;;;;;7.90;3.17;;;;;;;11.54;99.59;98043.00;5059276;28;20040;-95
2023/04/25 05:48:51;;;;;;;7.45;2.85;;;;;;;11.72;97.79;98024.44;5062159;28;20046;-94
2023/04/25 05:51:18;;;;;;;8.60;3.35;;;;;;;11.89;93.76;98015.75;5062943;28;20038;-93
2023/04/25 05:53:44;;;;;;;8.75;3.50;;;;;;;11.96;93.28;98021.66;5063393;28;20044;-94
2023/04/25 05:56:11;;;;;;;9.98;4.38;;;;;;;12.09;91.82;98037.97;5061014;28;20131;-96
2023/04/25 05:58:37;;;;;;;10.07;4.40;;;;;;;11.75;92.74;97993.28;5064991;28;20036;-94
2023/04/25 06:01:03;;;;;;;8.75;3.72;;;;;;;11.85;93.38;98024.78;5063019;28;20036;-94
2023/04/25 06:03:29;;;;;;;7.70;3.60;;;;;;;11.92;95.51;98004.06;5057638;28;20136;-94
2023/04/25 06:05:56;;;;;;;11.63;3.80;;;;;;;12.37;94.10;98008.25;5058777;28;20040;-93
2023/04/25 06:08:21;;;;;;;12.02;3.65;;;;;;;12.65;90.68;97980.28;5063893;28;20068;-93
2023/04/25 06:10:47;;;;;;;10.68;3.75;;;;;;;13.09;87.76;97982.56;5061591;28;20047;-94
2023/04/25 06:13:15;;;;;;;11.85;3.35;;;;;;;13.34;86.85;97982.25;5065557;28;20554;-93
2023/04/25 06:15:41;;;;;;;8.98;3.40;;;;;;;13.48;85.09;98000.22;5060141;28;20135;-94
2023/04/25 06:18:07;;;;;;;10.25;3.40;;;;;;;13.48;84.61;97992.22;5063219;28;20064;-94
2023/04/25 06:20:33;;;;;;;6.00;2.95;;;;;;;13.62;84.39;98040.47;5068018;28;20469;-94
2023/04/25 06:22:59;;;;;;;7.43;2.97;;;;;;;13.32;84.78;98016.16;5060319;28;20064;-93
2023/04/25 06:25:25;;;;;;;8.10;3.03;;;;;;;13.26;85.05;98022.63;5059623;28;20028;-93
2023/04/25 06:27:50;;;;;;;6.60;3.13;;;;;;;13.38;84.73;98045.25;5067004;28;20060;-92
2023/04/25 06:30:22;;;;;;;6.07;2.72;;;;;;;13.44;85.20;98042.25;5062052;28;20365;-92
2023/04/25 06:32:48;;;;;;;8.45;2.90;;;;;;;13.60;83.74;98012.06;5057858;28;20047;-91
2023/04/25 06:35:14;;;;;;;7.38;3.33;;;;;;;13.58;83.17;98027.34;5062458;28;20111;-93
2023/04/25 06:37:40;;;;;;;7.28;3.22;;;;;;;13.63;84.28;98033.31;5072415;28;20104;-93
2023/04/25 06:40:07;;;;;;;8.98;4.32;;;;;;;13.93;82.92;98045.06;5059054;28;20051;-94
2023/04/25 06:42:33;;;;;;;9.45;3.38;;;;;;;14.11;82.29;98034.34;5061107;28;20044;-93
2023/04/25 06:44:59;;;;;;;8.65;3.35;;;;;;;14.11;83.12;98053.94;5058737;28;20048;-94
2023/04/25 06:47:26;;;;;;;9.93;3.38;;;;;;;14.18;82.13;98006.34;5062804;28;20044;-94
2023/04/25 06:49:52;;;;;;;10.63;3.17;;;;;;;14.79;80.80;98040.47;5059365;28;20032;-95
2023/04/25 06:52:18;;;;;;;8.00;3.20;;;;;;;15.04;78.87;98024.84;5059508;28;20666;-95
2023/04/25 06:54:44;;;;;;;10.25;3.70;;;;;;;14.91;79.35;98001.44;5059158;28;20036;-95
2023/04/25 06:57:10;;;;;;;11.95;3.83;;;;;;;14.86;81.37;98032.97;5064504;28;20048;-95
2023/04/25 06:59:36;;;;;;;8.82;3.33;;;;;;;15.13;80.67;98003.72;5061577;28;20486;-95
2023/04/25 07:02:02;;;;;;;14.50;3.80;;;;;;;15.68;78.18;98026.44;5059523;28;20127;-93
2023/04/25 07:04:30;;;;;;;8.43;3.33;;;;;;;15.55;77.33;97996.81;5063000;28;20020;-94
2023/04/25 07:06:56;;;;;;;13.75;3.90;;;;;;;15.49;79.22;98029.34;5060685;28;20151;-93
2023/04/25 07:09:22;;;;;;;11.40;3.97;;;;;;;15.33;78.83;98010.63;5062159;28;20037;-94
2023/04/25 07:11:48;;;;;;;13.18;4.45;;;;;;;15.15;79.64;98019.72;5062013;28;20086;-93
2023/04/25 07:14:14;;;;;;;12.43;5.00;;;;;;;15.23;79.38;98030.00;5063304;28;20041;-94
2023/04/25 07:16:41;;;;;;;11.90;4.30;;;;;;;14.91;82.30;98036.22;5066174;28;20116;-94
2023/04/25 07:19:07;;;;;;;10.77;4.30;;;;;;;14.59;82.88;97987.19;5060859;28;20577;-93
2023/04/25 07:21:36;;;;;;;12.55;3.85;;;;;;;14.80;82.28;97982.44;5066244;28;20079;-95
2023/04/25 07:24:02;;;;;;;16.52;4.78;;;;;;;15.50;82.05;98014.13;5062514;28;20398;-94
2023/04/25 07:26:28;;;;;;;11.18;3.95;;;;;;;15.63;79.71;97988.31;5066449;28;20086;-93
2023/04/25 07:28:54;;;;;;;14.88;4.32;;;;;;;15.56;78.63;97997.69;5062820;28;20045;-95
2023/04/25 07:31:21;;;;;;;14.10;4.80;;;;;;;15.41;79.34;98005.66;5063113;28;20139;-94
2023/04/25 07:33:47;;;;;;;13.85;4.35;;;;;;;15.00;81.30;97979.47;5063589;28;20397;-94
2023/04/25 07:36:15;;;;;;;13.35;4.20;;;;;;;15.20;81.62;98006.91;5065371;28;20052;-94
2023/04/25 07:38:42;;;;;;;9.45;4.32;;;;;;;15.47;81.73;97984.84;5062744;28;20505;-93
2023/04/25 07:41:08;;;;;;;12.45;4.47;;;;;;;15.97;79.62;97972.91;5066263;28;20452;-93
2023/04/25 07:43:33;;;;;;;9.75;4.15;;;;;;;16.46;76.66;97967.16;5062991;28;20013;-93
2023/04/25 07:45:59;;;;;;;13.07;4.07;;;;;;;16.41;75.30;97980.81;5070500;28;20048;-93
2023/04/25 07:48:25;;;;;;;14.60;4.50;;;;;;;16.11;76.72;97980.97;5060946;28;20079;-94
2023/04/25 07:50:51;;;;;;;14.07;5.25;;;;;;;16.00;76.91;97999.50;5061886;28;20059;-94
2023/04/25 07:53:18;;;;;;;11.68;4.60;;;;;;;15.80;78.19;97980.16;5065535;28;20048;-94
2023/04/25 07:55:45;;;;;;;11.60;4.80;;;;;;;16.05;77.53;97978.66;5064838;28;20064;-94
2023/04/25 07:58:11;;;;;;;10.80;4.78;;;;;;;15.73;79.13;97977.94;5060940;28;20490;-94
2023/04/25 08:00:37;;;;;;;12.85;4.40;;;;;;;15.70;79.43;97988.81;5065642;28;20163;-93
2023/04/25 08:03:03;;;;;;;10.10;4.45;;;;;;;15.60;80.97;98001.91;5062186;28;20052;-94
2023/04/25 08:05:29;;;;;;;12.65;4.28;;;;;;;15.71;80.89;97990.53;5060374;28;20094;-93
2023/04/25 08:07:56;;;;;;;12.55;4.45;;;;;;;15.74;80.13;97987.69;5061625;28;20040;-93
2023/04/25 08:10:22;;;;;;;9.60;4.28;;;;;;;16.17;78.29;97971.66;5062418;28;20044;-93
2023/04/25 08:12:50;;;;;;;10.10;4.38;;;;;;;16.44;76.76;97971.75;5066463;28;20123;-92
2023/04/25 08:15:16;;;;;;;13.85;4.20;;;;;;;16.49;76.29;97971.44;5064660;28;20434;-93
2023/04/25 08:17:43;;;;;;;17.40;5.50;;;;;;;16.39;76.05;97968.47;5060463;28;20044;-93
2023/04/25 08:20:10;;;;;;;14.75;4.00;;;;;;;16.29;76.47;97981.63;5061802;28;20047;-93
2023/04/25 08:22:36;;;;;;;13.75;4.60;;;;;;;15.97;78.16;97984.47;5065519;28;20043;-93
2023/04/25 08:25:03;;;;;;;11.50;4.95;;;;;;;15.88;79.44;98006.50;5046371;28;20052;-93
2023/04/25 08:27:28;;;;;;;14.15;5.18;;;;;;;15.64;79.31;97975.78;5062218;28;20044;-94
2023/04/25 08:29:56;;;;;;;13.10;4.90;;;;;;;15.59;80.76;97998.38;5062647;28;20050;-93
2023/04/25 08:32:22;;;;;;;12.95;5.00;;;;;;;15.57;81.02;97983.31;5059541;28;20071;-93
2023/04/25 08:34:48;;;;;;;11.02;4.40;;;;;;;15.53;80.79;97971.09;5061945;28;20040;-93
2023/04/25 08:37:14;;;;;;;12.52;3.90;;;;;;;15.53;81.59;97982.66;5058479;28;21355;-94
2023/04/25 08:39:40;;;;;;;10.80;4.35;;;;;;;15.55;80.61;97974.53;5059313;28;20041;-93
2023/04/25 08:42:07;;;;;;;11.25;3.67;;;;;;;15.78;79.16;97960.59;5060473;28;20041;-94
2023/04/25 08:44:34;;;;;;;11.63;4.00;;;;;;;15.88;78.88;97958.25;5059814;28;20045;-94
2023/04/25 08:47:04;;;;;;;11.70;3.50;;;;;;;16.21;78.13;98003.53;5059482;28;20056;-95
2023/04/25 08:49:32;;;;;;;12.27;3.80;;;;;;;16.17;76.62;97972.50;5059883;28;20041;-94
2023/04/25 08:52:00;;;;;;;11.57;3.80;;;;;;;16.22;76.75;97961.47;5059954;28;20079;-94
2023/04/25 08:54:28;;;;;;;12.93;4.05;;;;;;;16.35;76.70;97985.72;5060081;28;20091;-94
2023/04/25 08:56:57;;;;;;;8.93;3.90;;;;;;;16.21;77.58;97992.81;5058809;28;20498;-94
2023/04/25 08:59:23;;;;;;;10.13;3.83;;;;;;;16.22;77.08;97962.38;5061588;28;20067;-93
2023/04/25 09:01:50;;;;;;;12.52;3.80;;;;;;;16.48;76.73;97999.22;5059454;28;20037;-94
2023/04/25 09:04:18;;;;;;;7.55;3.50;;;;;;;16.23;75.46;97961.41;5060171;28;20055;-94
2023/04/25 09:06:44;;;;;;;15.27;4.53;;;;;;;16.30;76.74;97998.56;5060240;28;20106;-94
2023/04/25 09:09:10;;;;;;;11.57;4.22;;;;;;;16.41;76.14;97996.94;5059929;28;20053;-94
2023/04/25 09:11:37;;;;;;;9.60;3.60;;;;;;;16.22;77.06;97977.56;5060151;28;20035;-94
2023/04/25 09:14:14;;;;;;;10.88;3.35;;;;;;;16.32;77.34;98005.56;5061453;28;20036;-94
2023/04/25 09:17:07;;;;;;;10.32;3.40;;;;;;;16.32;76.97;98010.06;5061059;28;20041;-94
2023/04/25 09:19:37;;;;;;;12.27;3.75;;;;;;;16.06;77.70;97985.72;5059038;28;20044;-93
2023/04/25 09:22:04;;;;;;;12.50;3.60;;;;;;;15.90;77.44;97982.28;5059545;28;20029;-95
2023/04/25 09:24:35;;;;;;;19.95;4.38;;;;;;;15.86;77.13;97983.44;5060324;28;20045;-93
2023/04/25 09:27:04;;;;;;;13.02;4.38;;;;;;;15.65;78.17;97969.47;5061164;28;20056;-93
2023/04/25 09:29:31;;;;;;;11.43;5.03;;;;;;;15.65;78.15;97967.63;5059288;28;20124;-93
2023/04/25 09:32:18;;;;;;;14.88;4.75;;;;;;;15.92;78.29;97985.72;5060643;28;20131;-93
2023/04/25 09:34:48;;;;;;;13.43;5.65;;;;;;;15.81;79.42;98005.16;5059070;28;20045;-93
2023/04/25 09:37:17;;;;;;;9.63;3.70;;;;;;;15.89;79.32;97994.81;5059734;28;20061;-94
2023/04/25 09:39:45;;;;;;;16.38;4.43;;;;;;;15.97;80.10;97986.31;5059879;28;20413;-94
2023/04/25 09:42:11;;;;;;;17.05;4.95;;;;;;;16.12;81.10;97995.22;5060290;28;20433;-94
2023/04/25 09:44:43;;;;;;;14.05;4.47;;;;;;;16.51;79.98;97958.78;5058725;28;20040;-94
2023/04/25 09:47:11;;;;;;;11.32;4.20;;;;;;;16.86;79.64;97979.84;5058497;28;20040;-94
2023/04/25 09:49:40;;;;;;;11.50;4.30;;;;;;;17.02;78.04;97985.91;5059930;28;20395;-94
2023/04/25 09:52:09;;;;;;;14.25;4.25;;;;;;;17.63;73.87;97949.56;5060144;28;20048;-95
2023/04/25 09:54:35;;;;;;;11.88;4.25;;;;;;;18.40;72.04;97959.47;5060173;28;20040;-94
2023/04/25 09:57:10;;;;;;;9.77;4.05;;;;;;;18.63;68.80;97974.81;5060076;28;20041;-93
2023/04/25 09:59:39;;;;;;;10.18;4.50;;;;;;;18.50;68.84;97943.47;5056824;28;20041;-94
2023/04/25 10:02:07;;;;;;;15.25;4.78;;;;;;;18.76;66.97;97944.28;5057441;28;20445;-95
2023/04/25 10:04:35;;;;;;;14.18;4.30;;;;;;;19.35;65.65;97965.94;5057543;28;20041;-94
2023/04/25 10:07:02;;;;;;;12.10;3.90;;;;;;;19.20;65.27;97980.56;5064804;28;20090;-95
2023/04/25 10:09:33;;;;;;;11.98;4.75;;;;;;;19.10;65.85;97961.53;5059536;28;20040;-94
2023/04/25 10:12:00;;;;;;;8.30;3.55;;;;;;;18.58;66.35;97933.88;5058360;28;20029;-94
2023/04/25 10:14:26;;;;;;;9.25;3.30;;;;;;;17.81;69.05;97927.72;5058182;28;20056;-94
2023/04/25 10:16:53;;;;;;;10.00;3.85;;;;;;;17.95;69.08;97969.81;5055798;28;20033;-93
2023/04/25 10:19:20;;;;;;;11.65;4.07;;;;;;;17.54;70.86;97952.84;5056339;28;20075;-94
2023/04/25 10:21:52;;;;;;;14.05;4.20;;;;;;;17.16;73.39;97964.38;5057542;28;20103;-96
2023/04/25 10:24:20;;;;;;;10.50;3.80;;;;;;;17.11;74.11;97957.56;5056409;28;20490;-95
2023/04/25 10:26:49;;;;;;;12.18;4.70;;;;;;;16.97;74.10;97945.94;5057049;28;20049;-95
2023/04/25 10:29:21;;;;;;;;;;;;;;;17.46;74.36;97960.59;5058783;28;20041;-94
2023/04/25 10:31:47;;;;;;;11.23;4.40;;;;;;;17.86;71.10;97920.22;5057398;28;20410;-94
2023/04/25 10:34:13;;;;;;;11.30;3.90;;;;;;;18.50;67.71;97925.53;5057426;28;20040;-94
2023/04/25 10:36:39;;;;;;;12.18;4.63;;;;;;;18.09;68.17;97933.88;5057890;28;20044;-92
2023/04/25 10:39:07;;;;;;;10.95;4.30;;;;;;;17.89;69.17;97919.13;5060188;28;20132;-93
2023/04/25 10:41:48;;;;;;;11.45;4.18;;;;;;;18.62;68.25;97907.59;5061183;28;20037;-94
2023/04/25 10:44:15;;;;;;;13.05;4.10;;;;;;;18.77;67.09;97929.84;5043989;28;20075;-93
2023/04/25 10:46:41;;;;;;;9.23;3.63;;;;;;;18.34;65.07;97911.44;5055928;28;20037;-94
2023/04/25 10:49:09;;;;;;;14.02;4.93;;;;;;;17.96;68.31;97923.13;5061810;28;20044;-94
2023/04/25 10:51:36;;;;;;;9.13;3.90;;;;;;;17.28;75.12;97941.19;5064350;28;20112;-94
2023/04/25 10:54:04;;;;;;;11.40;4.30;;;;;;;16.75;81.67;97935.72;5064745;28;20513;-95
2023/04/25 10:56:31;;;;;;;9.60;3.65;;;;;;;16.19;83.29;97892.81;5063520;28;20575;-94
2023/04/25 10:59:08;;;;;;;10.43;4.05;;;;;;;16.39;85.92;97931.78;5063994;28;20040;-95
2023/04/25 11:01:39;;;;;;;14.20;4.70;;;;;;;16.35;88.03;97926.69;5061837;28;20089;-95
2023/04/25 11:04:05;;;;;;;10.50;4.25;;;;;;;15.88;88.44;97887.69;5065367;28;20033;-95
2023/04/25 11:06:46;;;;;;;11.95;5.05;;;;;;;15.71;85.41;97918.16;5064721;28;20041;-94
2023/04/25 11:09:13;;;;;;;10.38;3.75;;;;;;;15.83;89.04;97914.78;5063329;28;20087;-94
2023/04/25 11:11:39;;;;;;;13.02;4.47;;;;;;;15.75;87.84;97904.50;5076278;28;20045;-94
2023/04/25 11:14:07;;;;;;;7.43;3.22;;;;;;;15.73;88.42;97897.53;5073252;28;20535;-94
2023/04/25 11:16:33;;;;;;;6.72;3.00;;;;;;;15.86;86.58;97914.56;5062145;28;20047;-94
2023/04/25 11:18:59;;;;;;;9.00;3.25;;;;;;;15.95;85.00;97891.69;5063869;28;20064;-94
2023/04/25 11:21:28;;;;;;;7.03;3.20;;;;;;;15.87;84.25;97884.09;5064770;28;20045;-95
2023/04/25 11:23:56;;;;;;;6.90;3.08;;;;;;;15.67;87.60;97881.78;5064844;28;20483;-95
2023/04/25 11:26:24;;;;;;;8.93;3.30;;;;;;;15.80;88.20;97875.59;5064676;28;20052;-94
2023/04/25 11:28:50;;;;;;;12.70;4.18;;;;;;;16.10;89.17;97879.97;5064858;28;20037;-95